sensor_id;sensor_type;location;lat;lon;timestamp;P1;durP1;ratioP1;P2;durP2;ratioP2
79487;SDS011;68949;53.176;18.088;2023-07-02T00:00:07;9.20;;;3.70;;
79487;SDS011;68949;53.176;18.088;2023-07-02T00:03:00;5.50;;;3.10;;
79487;SDS011;68949;53.176;18.088;2023-07-02T00:05:27;7.10;;;3.80;;
79487;SDS011;68949;53.176;18.088;2023-07-02T00:07:54;5.80;;;2.80;;
79487;SDS011;68949;53.176;18.088;2023-07-02T00:10:21;7.10;;;3.40;;
79487;SDS011;68949;53.176;18.088;2023-07-02T00:12:47;7.00;;;3.50;;
79487;SDS011;68949;53.176;18.088;2023-07-02T00:15:14;7.50;;;3.80;;
79487;SDS011;68949;53.176;18.088;2023-07-02T00:17:41;6.20;;;3.10;;
79487;SDS011;68949;53.176;18.088;2023-07-02T00:20:09;6.90;;;3.60;;
79487;SDS011;68949;53.176;18.088;2023-07-02T00:22:43;6.50;;;3.30;;
79487;SDS011;68949;53.176;18.088;2023-07-02T00:25:13;6.40;;;3.00;;
79487;SDS011;68949;53.176;18.088;2023-07-02T00:27:40;5.70;;;2.90;;
79487;SDS011;68949;53.176;18.088;2023-07-02T00:30:08;9.50;;;3.80;;
79487;SDS011;68949;53.176;18.088;2023-07-02T00:32:35;11.30;;;4.00;;
79487;SDS011;68949;53.176;18.088;2023-07-02T00:35:02;6.50;;;3.60;;
79487;SDS011;68949;53.176;18.088;2023-07-02T00:37:29;6.60;;;3.40;;
79487;SDS011;68949;53.176;18.088;2023-07-02T00:39:56;6.80;;;2.50;;
79487;SDS011;68949;53.176;18.088;2023-07-02T00:42:24;6.50;;;3.20;;
79487;SDS011;68949;53.176;18.088;2023-07-02T00:44:53;6.40;;;3.60;;
79487;SDS011;68949;53.176;18.088;2023-07-02T00:47:23;6.80;;;3.40;;
79487;SDS011;68949;53.176;18.088;2023-07-02T00:49:50;5.60;;;3.10;;
79487;SDS011;68949;53.176;18.088;2023-07-02T00:52:17;8.60;;;3.50;;
79487;SDS011;68949;53.176;18.088;2023-07-02T00:54:46;5.20;;;2.80;;
79487;SDS011;68949;53.176;18.088;2023-07-02T00:57:13;7.20;;;3.00;;
79487;SDS011;68949;53.176;18.088;2023-07-02T00:59:41;7.50;;;3.50;;
79487;SDS011;68949;53.176;18.088;2023-07-02T01:02:08;5.90;;;3.20;;
79487;SDS011;68949;53.176;18.088;2023-07-02T01:04:35;6.60;;;2.70;;
79487;SDS011;68949;53.176;18.088;2023-07-02T01:07:03;5.60;;;2.80;;
79487;SDS011;68949;53.176;18.088;2023-07-02T01:09:35;5.40;;;2.40;;
79487;SDS011;68949;53.176;18.088;2023-07-02T01:12:05;6.60;;;3.00;;
79487;SDS011;68949;53.176;18.088;2023-07-02T01:14:38;5.60;;;3.00;;
79487;SDS011;68949;53.176;18.088;2023-07-02T01:17:08;6.90;;;2.70;;
79487;SDS011;68949;53.176;18.088;2023-07-02T01:19:42;7.00;;;2.80;;
79487;SDS011;68949;53.176;18.088;2023-07-02T01:22:22;5.10;;;2.40;;
79487;SDS011;68949;53.176;18.088;2023-07-02T01:24:51;5.80;;;2.50;;
79487;SDS011;68949;53.176;18.088;2023-07-02T01:27:19;7.60;;;2.90;;
79487;SDS011;68949;53.176;18.088;2023-07-02T01:29:50;6.80;;;2.70;;
79487;SDS011;68949;53.176;18.088;2023-07-02T01:32:19;6.90;;;2.70;;
79487;SDS011;68949;53.176;18.088;2023-07-02T01:34:46;4.10;;;2.00;;
79487;SDS011;68949;53.176;18.088;2023-07-02T01:37:16;6.90;;;2.30;;
79487;SDS011;68949;53.176;18.088;2023-07-02T01:39:46;6.40;;;2.50;;
79487;SDS011;68949;53.176;18.088;2023-07-02T01:42:17;6.00;;;2.90;;
79487;SDS011;68949;53.176;18.088;2023-07-02T01:44:47;5.40;;;2.80;;
79487;SDS011;68949;53.176;18.088;2023-07-02T01:47:17;5.30;;;2.40;;
79487;SDS011;68949;53.176;18.088;2023-07-02T01:49:46;6.70;;;3.20;;
79487;SDS011;68949;53.176;18.088;2023-07-02T01:52:12;7.20;;;2.70;;
79487;SDS011;68949;53.176;18.088;2023-07-02T01:54:39;4.70;;;2.10;;
79487;SDS011;68949;53.176;18.088;2023-07-02T01:57:06;5.10;;;2.20;;
79487;SDS011;68949;53.176;18.088;2023-07-02T01:59:33;5.30;;;2.70;;
79487;SDS011;68949;53.176;18.088;2023-07-02T02:01:59;4.70;;;2.40;;
79487;SDS011;68949;53.176;18.088;2023-07-02T02:04:26;5.40;;;2.50;;
79487;SDS011;68949;53.176;18.088;2023-07-02T02:06:54;5.70;;;2.40;;
79487;SDS011;68949;53.176;18.088;2023-07-02T02:09:21;5.50;;;2.70;;
79487;SDS011;68949;53.176;18.088;2023-07-02T02:11:50;6.20;;;2.00;;
79487;SDS011;68949;53.176;18.088;2023-07-02T02:14:18;5.10;;;2.70;;
79487;SDS011;68949;53.176;18.088;2023-07-02T02:16:45;4.60;;;2.10;;
79487;SDS011;68949;53.176;18.088;2023-07-02T02:19:12;6.70;;;3.30;;
79487;SDS011;68949;53.176;18.088;2023-07-02T02:21:39;4.70;;;2.70;;
79487;SDS011;68949;53.176;18.088;2023-07-02T02:24:07;5.40;;;2.70;;
79487;SDS011;68949;53.176;18.088;2023-07-02T02:26:34;6.00;;;2.30;;
79487;SDS011;68949;53.176;18.088;2023-07-02T02:29:03;5.80;;;2.60;;
79487;SDS011;68949;53.176;18.088;2023-07-02T02:31:31;5.30;;;2.00;;
79487;SDS011;68949;53.176;18.088;2023-07-02T02:33:58;7.90;;;3.40;;
79487;SDS011;68949;53.176;18.088;2023-07-02T02:36:24;7.20;;;3.20;;
79487;SDS011;68949;53.176;18.088;2023-07-02T02:38:52;5.00;;;2.80;;
79487;SDS011;68949;53.176;18.088;2023-07-02T02:41:19;4.00;;;1.80;;
79487;SDS011;68949;53.176;18.088;2023-07-02T02:43:48;4.30;;;2.10;;
79487;SDS011;68949;53.176;18.088;2023-07-02T02:46:20;7.20;;;2.60;;
79487;SDS011;68949;53.176;18.088;2023-07-02T02:48:49;5.40;;;2.80;;
79487;SDS011;68949;53.176;18.088;2023-07-02T02:51:16;5.90;;;3.30;;
79487;SDS011;68949;53.176;18.088;2023-07-02T02:53:43;5.20;;;2.50;;
79487;SDS011;68949;53.176;18.088;2023-07-02T02:56:09;6.20;;;3.00;;
79487;SDS011;68949;53.176;18.088;2023-07-02T02:58:36;8.60;;;3.30;;
79487;SDS011;68949;53.176;18.088;2023-07-02T03:01:03;5.20;;;2.50;;
79487;SDS011;68949;53.176;18.088;2023-07-02T03:03:40;5.90;;;2.70;;
79487;SDS011;68949;53.176;18.088;2023-07-02T03:06:12;5.80;;;2.70;;
79487;SDS011;68949;53.176;18.088;2023-07-02T03:08:41;4.60;;;2.00;;
79487;SDS011;68949;53.176;18.088;2023-07-02T03:11:07;7.30;;;2.40;;
79487;SDS011;68949;53.176;18.088;2023-07-02T03:13:34;4.40;;;2.20;;
79487;SDS011;68949;53.176;18.088;2023-07-02T03:16:01;3.90;;;1.90;;
79487;SDS011;68949;53.176;18.088;2023-07-02T03:18:28;6.80;;;3.00;;
79487;SDS011;68949;53.176;18.088;2023-07-02T03:20:54;5.90;;;2.70;;
79487;SDS011;68949;53.176;18.088;2023-07-02T03:23:21;5.50;;;2.60;;
79487;SDS011;68949;53.176;18.088;2023-07-02T03:25:48;6.30;;;2.50;;
79487;SDS011;68949;53.176;18.088;2023-07-02T03:28:15;7.20;;;2.70;;
79487;SDS011;68949;53.176;18.088;2023-07-02T03:30:41;5.90;;;2.80;;
79487;SDS011;68949;53.176;18.088;2023-07-02T03:33:09;4.70;;;2.40;;
79487;SDS011;68949;53.176;18.088;2023-07-02T03:35:36;7.80;;;3.00;;
79487;SDS011;68949;53.176;18.088;2023-07-02T03:38:04;8.00;;;2.60;;
79487;SDS011;68949;53.176;18.088;2023-07-02T03:40:32;4.40;;;2.30;;
79487;SDS011;68949;53.176;18.088;2023-07-02T03:42:59;5.90;;;2.10;;
79487;SDS011;68949;53.176;18.088;2023-07-02T03:45:26;4.60;;;1.90;;
79487;SDS011;68949;53.176;18.088;2023-07-02T03:47:52;7.10;;;2.80;;
79487;SDS011;68949;53.176;18.088;2023-07-02T03:50:19;4.20;;;1.20;;
79487;SDS011;68949;53.176;18.088;2023-07-02T03:52:46;4.60;;;1.90;;
79487;SDS011;68949;53.176;18.088;2023-07-02T03:55:12;5.10;;;2.40;;
79487;SDS011;68949;53.176;18.088;2023-07-02T03:57:39;5.10;;;2.40;;
79487;SDS011;68949;53.176;18.088;2023-07-02T04:00:06;5.10;;;2.00;;
79487;SDS011;68949;53.176;18.088;2023-07-02T04:02:41;4.90;;;2.40;;
79487;SDS011;68949;53.176;18.088;2023-07-02T04:05:08;4.30;;;1.90;;
79487;SDS011;68949;53.176;18.088;2023-07-02T04:07:35;6.60;;;2.30;;
79487;SDS011;68949;53.176;18.088;2023-07-02T04:10:02;4.90;;;1.80;;
79487;SDS011;68949;53.176;18.088;2023-07-02T04:12:30;4.20;;;1.90;;
79487;SDS011;68949;53.176;18.088;2023-07-02T04:14:57;5.80;;;2.20;;
79487;SDS011;68949;53.176;18.088;2023-07-02T04:17:24;4.90;;;1.70;;
79487;SDS011;68949;53.176;18.088;2023-07-02T04:19:54;4.80;;;2.10;;
79487;SDS011;68949;53.176;18.088;2023-07-02T04:22:21;5.10;;;2.00;;
79487;SDS011;68949;53.176;18.088;2023-07-02T04:24:48;3.60;;;1.00;;
79487;SDS011;68949;53.176;18.088;2023-07-02T04:27:15;3.90;;;1.50;;
79487;SDS011;68949;53.176;18.088;2023-07-02T04:29:45;4.70;;;1.60;;
79487;SDS011;68949;53.176;18.088;2023-07-02T04:32:12;8.50;;;2.40;;
79487;SDS011;68949;53.176;18.088;2023-07-02T04:34:39;4.20;;;1.90;;
79487;SDS011;68949;53.176;18.088;2023-07-02T04:37:06;4.20;;;1.80;;
79487;SDS011;68949;53.176;18.088;2023-07-02T04:39:32;4.40;;;1.80;;
79487;SDS011;68949;53.176;18.088;2023-07-02T04:42:00;3.80;;;1.50;;
79487;SDS011;68949;53.176;18.088;2023-07-02T04:44:27;4.10;;;1.60;;
79487;SDS011;68949;53.176;18.088;2023-07-02T04:47:00;4.60;;;2.00;;
79487;SDS011;68949;53.176;18.088;2023-07-02T04:49:28;5.20;;;1.70;;
79487;SDS011;68949;53.176;18.088;2023-07-02T04:51:55;4.70;;;1.80;;
79487;SDS011;68949;53.176;18.088;2023-07-02T04:54:22;4.00;;;1.60;;
79487;SDS011;68949;53.176;18.088;2023-07-02T04:56:49;5.00;;;1.80;;
79487;SDS011;68949;53.176;18.088;2023-07-02T04:59:16;5.40;;;2.00;;
79487;SDS011;68949;53.176;18.088;2023-07-02T05:01:43;7.00;;;2.20;;
79487;SDS011;68949;53.176;18.088;2023-07-02T05:04:11;4.50;;;1.60;;
79487;SDS011;68949;53.176;18.088;2023-07-02T05:06:37;4.90;;;2.00;;
79487;SDS011;68949;53.176;18.088;2023-07-02T05:09:04;5.20;;;1.90;;
79487;SDS011;68949;53.176;18.088;2023-07-02T05:11:31;5.10;;;1.90;;
79487;SDS011;68949;53.176;18.088;2023-07-02T05:13:58;3.70;;;1.60;;
79487;SDS011;68949;53.176;18.088;2023-07-02T05:16:25;3.70;;;1.40;;
79487;SDS011;68949;53.176;18.088;2023-07-02T05:18:51;3.10;;;1.30;;
79487;SDS011;68949;53.176;18.088;2023-07-02T05:21:18;3.10;;;1.30;;
79487;SDS011;68949;53.176;18.088;2023-07-02T05:23:45;3.30;;;1.60;;
79487;SDS011;68949;53.176;18.088;2023-07-02T05:26:12;3.30;;;1.50;;
79487;SDS011;68949;53.176;18.088;2023-07-02T05:28:38;5.10;;;1.30;;
79487;SDS011;68949;53.176;18.088;2023-07-02T05:31:05;4.50;;;1.00;;
79487;SDS011;68949;53.176;18.088;2023-07-02T05:33:32;3.60;;;1.50;;
79487;SDS011;68949;53.176;18.088;2023-07-02T05:35:59;3.20;;;1.30;;
79487;SDS011;68949;53.176;18.088;2023-07-02T05:38:26;4.80;;;1.30;;
79487;SDS011;68949;53.176;18.088;2023-07-02T05:40:53;3.80;;;1.40;;
79487;SDS011;68949;53.176;18.088;2023-07-02T05:43:19;3.20;;;1.10;;
79487;SDS011;68949;53.176;18.088;2023-07-02T05:45:46;3.70;;;1.70;;
79487;SDS011;68949;53.176;18.088;2023-07-02T05:48:13;3.20;;;1.40;;
79487;SDS011;68949;53.176;18.088;2023-07-02T05:50:39;3.40;;;1.50;;
79487;SDS011;68949;53.176;18.088;2023-07-02T05:53:06;2.70;;;1.10;;
79487;SDS011;68949;53.176;18.088;2023-07-02T05:55:33;3.30;;;1.40;;
79487;SDS011;68949;53.176;18.088;2023-07-02T05:57:59;4.20;;;1.70;;
79487;SDS011;68949;53.176;18.088;2023-07-02T06:00:29;4.50;;;1.60;;
79487;SDS011;68949;53.176;18.088;2023-07-02T06:02:55;3.20;;;1.20;;
79487;SDS011;68949;53.176;18.088;2023-07-02T06:05:22;2.80;;;1.10;;
79487;SDS011;68949;53.176;18.088;2023-07-02T06:07:49;2.90;;;0.80;;
79487;SDS011;68949;53.176;18.088;2023-07-02T06:10:15;2.90;;;1.20;;
79487;SDS011;68949;53.176;18.088;2023-07-02T06:12:43;3.10;;;1.40;;
79487;SDS011;68949;53.176;18.088;2023-07-02T06:15:11;3.10;;;1.30;;
79487;SDS011;68949;53.176;18.088;2023-07-02T06:17:37;3.50;;;1.20;;
79487;SDS011;68949;53.176;18.088;2023-07-02T06:20:05;2.50;;;1.00;;
79487;SDS011;68949;53.176;18.088;2023-07-02T06:22:32;3.10;;;1.20;;
79487;SDS011;68949;53.176;18.088;2023-07-02T06:24:59;2.90;;;0.90;;
79487;SDS011;68949;53.176;18.088;2023-07-02T06:27:26;3.40;;;0.60;;
79487;SDS011;68949;53.176;18.088;2023-07-02T06:29:53;2.70;;;0.90;;
79487;SDS011;68949;53.176;18.088;2023-07-02T06:32:19;3.10;;;1.10;;
79487;SDS011;68949;53.176;18.088;2023-07-02T06:34:46;4.30;;;1.30;;
79487;SDS011;68949;53.176;18.088;2023-07-02T06:37:13;2.90;;;1.10;;
79487;SDS011;68949;53.176;18.088;2023-07-02T06:39:39;3.10;;;1.20;;
79487;SDS011;68949;53.176;18.088;2023-07-02T06:42:06;3.90;;;0.70;;
79487;SDS011;68949;53.176;18.088;2023-07-02T06:44:38;3.00;;;1.20;;
79487;SDS011;68949;53.176;18.088;2023-07-02T06:47:05;5.80;;;1.10;;
79487;SDS011;68949;53.176;18.088;2023-07-02T06:49:31;4.30;;;1.10;;
79487;SDS011;68949;53.176;18.088;2023-07-02T06:51:58;4.00;;;0.80;;
79487;SDS011;68949;53.176;18.088;2023-07-02T06:54:26;4.60;;;1.30;;
79487;SDS011;68949;53.176;18.088;2023-07-02T06:56:53;3.60;;;1.10;;
79487;SDS011;68949;53.176;18.088;2023-07-02T06:59:20;3.10;;;1.10;;
79487;SDS011;68949;53.176;18.088;2023-07-02T07:01:49;3.30;;;1.10;;
79487;SDS011;68949;53.176;18.088;2023-07-02T07:04:17;4.60;;;1.60;;
79487;SDS011;68949;53.176;18.088;2023-07-02T07:06:43;4.90;;;1.40;;
79487;SDS011;68949;53.176;18.088;2023-07-02T07:09:10;3.40;;;1.30;;
79487;SDS011;68949;53.176;18.088;2023-07-02T07:11:37;4.40;;;1.30;;
79487;SDS011;68949;53.176;18.088;2023-07-02T07:14:04;4.90;;;1.50;;
79487;SDS011;68949;53.176;18.088;2023-07-02T07:16:30;3.50;;;0.90;;
79487;SDS011;68949;53.176;18.088;2023-07-02T07:18:57;2.90;;;1.00;;
79487;SDS011;68949;53.176;18.088;2023-07-02T07:21:24;3.20;;;1.00;;
79487;SDS011;68949;53.176;18.088;2023-07-02T07:23:50;7.00;;;1.40;;
79487;SDS011;68949;53.176;18.088;2023-07-02T07:26:17;3.70;;;1.30;;
79487;SDS011;68949;53.176;18.088;2023-07-02T07:28:44;6.20;;;1.30;;
79487;SDS011;68949;53.176;18.088;2023-07-02T07:31:10;4.90;;;1.30;;
79487;SDS011;68949;53.176;18.088;2023-07-02T07:33:37;4.00;;;1.20;;
79487;SDS011;68949;53.176;18.088;2023-07-02T07:36:04;3.20;;;1.20;;
79487;SDS011;68949;53.176;18.088;2023-07-02T07:38:31;4.00;;;1.40;;
79487;SDS011;68949;53.176;18.088;2023-07-02T07:40:57;4.10;;;1.50;;
79487;SDS011;68949;53.176;18.088;2023-07-02T07:43:24;4.00;;;1.30;;
79487;SDS011;68949;53.176;18.088;2023-07-02T07:45:51;4.50;;;1.40;;
79487;SDS011;68949;53.176;18.088;2023-07-02T07:48:17;3.80;;;1.20;;
79487;SDS011;68949;53.176;18.088;2023-07-02T07:50:44;3.90;;;1.50;;
79487;SDS011;68949;53.176;18.088;2023-07-02T07:53:11;4.80;;;1.50;;
79487;SDS011;68949;53.176;18.088;2023-07-02T07:55:38;3.70;;;1.60;;
79487;SDS011;68949;53.176;18.088;2023-07-02T07:58:04;4.50;;;1.30;;
79487;SDS011;68949;53.176;18.088;2023-07-02T08:00:31;3.50;;;1.50;;
79487;SDS011;68949;53.176;18.088;2023-07-02T08:02:58;4.10;;;1.70;;
79487;SDS011;68949;53.176;18.088;2023-07-02T08:05:26;3.70;;;1.50;;
79487;SDS011;68949;53.176;18.088;2023-07-02T08:07:53;5.10;;;1.60;;
79487;SDS011;68949;53.176;18.088;2023-07-02T08:10:23;4.20;;;1.70;;
79487;SDS011;68949;53.176;18.088;2023-07-02T08:12:51;4.90;;;1.30;;
79487;SDS011;68949;53.176;18.088;2023-07-02T08:15:21;3.70;;;1.10;;
79487;SDS011;68949;53.176;18.088;2023-07-02T08:17:48;4.40;;;1.60;;
79487;SDS011;68949;53.176;18.088;2023-07-02T08:20:15;3.20;;;1.20;;
79487;SDS011;68949;53.176;18.088;2023-07-02T08:22:43;3.40;;;1.20;;
79487;SDS011;68949;53.176;18.088;2023-07-02T08:25:10;3.50;;;1.20;;
79487;SDS011;68949;53.176;18.088;2023-07-02T08:27:36;3.50;;;1.30;;
79487;SDS011;68949;53.176;18.088;2023-07-02T08:30:04;3.60;;;1.00;;
79487;SDS011;68949;53.176;18.088;2023-07-02T08:32:31;3.10;;;1.10;;
79487;SDS011;68949;53.176;18.088;2023-07-02T08:34:59;4.40;;;0.90;;
79487;SDS011;68949;53.176;18.088;2023-07-02T08:37:25;4.00;;;1.50;;
79487;SDS011;68949;53.176;18.088;2023-07-02T08:39:52;4.30;;;1.40;;
79487;SDS011;68949;53.176;18.088;2023-07-02T08:42:19;4.60;;;1.30;;
79487;SDS011;68949;53.176;18.088;2023-07-02T08:44:46;3.20;;;0.90;;
79487;SDS011;68949;53.176;18.088;2023-07-02T08:47:14;3.90;;;1.20;;
79487;SDS011;68949;53.176;18.088;2023-07-02T08:49:42;4.30;;;1.00;;
79487;SDS011;68949;53.176;18.088;2023-07-02T08:52:09;4.90;;;1.40;;
79487;SDS011;68949;53.176;18.088;2023-07-02T08:54:36;3.30;;;1.30;;
79487;SDS011;68949;53.176;18.088;2023-07-02T08:57:03;3.50;;;0.80;;
79487;SDS011;68949;53.176;18.088;2023-07-02T08:59:32;6.90;;;1.40;;
79487;SDS011;68949;53.176;18.088;2023-07-02T09:01:58;2.90;;;1.10;;
79487;SDS011;68949;53.176;18.088;2023-07-02T09:04:25;3.50;;;1.10;;
79487;SDS011;68949;53.176;18.088;2023-07-02T09:07:06;4.80;;;1.70;;
79487;SDS011;68949;53.176;18.088;2023-07-02T09:09:50;4.10;;;1.50;;
79487;SDS011;68949;53.176;18.088;2023-07-02T09:12:30;3.40;;;1.00;;
79487;SDS011;68949;53.176;18.088;2023-07-02T09:15:03;4.10;;;1.20;;
79487;SDS011;68949;53.176;18.088;2023-07-02T09:17:35;4.50;;;1.40;;
79487;SDS011;68949;53.176;18.088;2023-07-02T09:20:05;6.20;;;1.30;;
79487;SDS011;68949;53.176;18.088;2023-07-02T09:22:34;4.40;;;1.40;;
79487;SDS011;68949;53.176;18.088;2023-07-02T09:25:02;3.90;;;1.30;;
79487;SDS011;68949;53.176;18.088;2023-07-02T09:27:38;3.10;;;1.10;;
79487;SDS011;68949;53.176;18.088;2023-07-02T09:30:11;3.70;;;1.30;;
79487;SDS011;68949;53.176;18.088;2023-07-02T09:32:42;4.60;;;1.50;;
79487;SDS011;68949;53.176;18.088;2023-07-02T09:35:13;3.70;;;1.20;;
79487;SDS011;68949;53.176;18.088;2023-07-02T09:37:44;4.90;;;1.40;;
79487;SDS011;68949;53.176;18.088;2023-07-02T09:40:13;3.20;;;1.00;;
79487;SDS011;68949;53.176;18.088;2023-07-02T09:42:42;3.30;;;1.40;;
79487;SDS011;68949;53.176;18.088;2023-07-02T09:45:12;4.60;;;1.50;;
79487;SDS011;68949;53.176;18.088;2023-07-02T09:47:44;4.20;;;1.50;;
79487;SDS011;68949;53.176;18.088;2023-07-02T09:50:16;4.30;;;1.70;;
79487;SDS011;68949;53.176;18.088;2023-07-02T09:52:45;3.70;;;1.50;;
79487;SDS011;68949;53.176;18.088;2023-07-02T09:55:14;5.00;;;1.70;;
79487;SDS011;68949;53.176;18.088;2023-07-02T09:57:43;5.90;;;1.50;;
79487;SDS011;68949;53.176;18.088;2023-07-02T10:00:13;4.60;;;1.90;;
79487;SDS011;68949;53.176;18.088;2023-07-02T10:02:41;4.10;;;1.90;;
79487;SDS011;68949;53.176;18.088;2023-07-02T10:05:28;3.50;;;1.60;;
79487;SDS011;68949;53.176;18.088;2023-07-02T10:07:57;5.90;;;1.90;;
79487;SDS011;68949;53.176;18.088;2023-07-02T10:10:29;3.40;;;1.10;;
79487;SDS011;68949;53.176;18.088;2023-07-02T10:12:58;6.40;;;1.70;;
79487;SDS011;68949;53.176;18.088;2023-07-02T10:15:28;4.70;;;1.80;;
79487;SDS011;68949;53.176;18.088;2023-07-02T10:18:01;6.30;;;1.40;;
79487;SDS011;68949;53.176;18.088;2023-07-02T10:20:35;4.20;;;1.50;;
79487;SDS011;68949;53.176;18.088;2023-07-02T10:23:09;4.20;;;1.60;;
79487;SDS011;68949;53.176;18.088;2023-07-02T10:25:37;3.80;;;1.30;;
79487;SDS011;68949;53.176;18.088;2023-07-02T10:28:18;3.70;;;1.10;;
79487;SDS011;68949;53.176;18.088;2023-07-02T10:30:48;4.80;;;1.50;;
79487;SDS011;68949;53.176;18.088;2023-07-02T10:33:16;3.70;;;1.40;;
79487;SDS011;68949;53.176;18.088;2023-07-02T10:35:45;4.90;;;1.50;;
79487;SDS011;68949;53.176;18.088;2023-07-02T10:38:19;5.60;;;1.50;;
79487;SDS011;68949;53.176;18.088;2023-07-02T10:40:59;2.90;;;1.00;;
79487;SDS011;68949;53.176;18.088;2023-07-02T10:43:31;3.40;;;1.30;;
79487;SDS011;68949;53.176;18.088;2023-07-02T10:45:59;4.10;;;1.60;;
79487;SDS011;68949;53.176;18.088;2023-07-02T10:48:27;4.20;;;1.20;;
79487;SDS011;68949;53.176;18.088;2023-07-02T10:50:54;3.20;;;1.20;;
79487;SDS011;68949;53.176;18.088;2023-07-02T10:53:21;4.70;;;1.70;;
79487;SDS011;68949;53.176;18.088;2023-07-02T10:55:55;3.90;;;1.40;;
79487;SDS011;68949;53.176;18.088;2023-07-02T10:58:23;4.10;;;1.30;;
79487;SDS011;68949;53.176;18.088;2023-07-02T11:00:51;7.00;;;1.80;;
79487;SDS011;68949;53.176;18.088;2023-07-02T11:03:23;5.20;;;1.60;;
79487;SDS011;68949;53.176;18.088;2023-07-02T11:05:54;4.40;;;1.80;;
79487;SDS011;68949;53.176;18.088;2023-07-02T11:08:21;5.70;;;1.80;;
79487;SDS011;68949;53.176;18.088;2023-07-02T11:10:49;4.30;;;1.60;;
79487;SDS011;68949;53.176;18.088;2023-07-02T11:13:19;3.60;;;1.50;;
79487;SDS011;68949;53.176;18.088;2023-07-02T11:15:46;4.10;;;1.10;;
79487;SDS011;68949;53.176;18.088;2023-07-02T11:18:17;4.00;;;1.30;;
79487;SDS011;68949;53.176;18.088;2023-07-02T11:20:48;3.70;;;1.40;;
79487;SDS011;68949;53.176;18.088;2023-07-02T11:23:22;3.90;;;1.30;;
79487;SDS011;68949;53.176;18.088;2023-07-02T11:25:58;3.10;;;1.10;;
79487;SDS011;68949;53.176;18.088;2023-07-02T11:28:30;3.50;;;1.00;;
79487;SDS011;68949;53.176;18.088;2023-07-02T11:30:58;3.90;;;1.30;;
79487;SDS011;68949;53.176;18.088;2023-07-02T11:33:36;4.00;;;1.30;;
79487;SDS011;68949;53.176;18.088;2023-07-02T11:36:05;3.90;;;1.50;;
79487;SDS011;68949;53.176;18.088;2023-07-02T11:38:35;4.60;;;1.40;;
79487;SDS011;68949;53.176;18.088;2023-07-02T11:41:04;3.80;;;1.40;;
79487;SDS011;68949;53.176;18.088;2023-07-02T11:43:31;4.40;;;1.40;;
79487;SDS011;68949;53.176;18.088;2023-07-02T11:45:58;3.40;;;1.40;;
79487;SDS011;68949;53.176;18.088;2023-07-02T11:48:25;4.10;;;1.50;;
79487;SDS011;68949;53.176;18.088;2023-07-02T11:50:52;4.50;;;1.50;;
79487;SDS011;68949;53.176;18.088;2023-07-02T11:53:18;4.80;;;1.60;;
79487;SDS011;68949;53.176;18.088;2023-07-02T11:55:45;5.50;;;1.50;;
79487;SDS011;68949;53.176;18.088;2023-07-02T11:58:12;3.80;;;1.50;;
79487;SDS011;68949;53.176;18.088;2023-07-02T12:00:39;4.80;;;1.60;;
79487;SDS011;68949;53.176;18.088;2023-07-02T12:03:06;4.20;;;1.40;;
79487;SDS011;68949;53.176;18.088;2023-07-02T12:05:33;4.50;;;1.60;;
79487;SDS011;68949;53.176;18.088;2023-07-02T12:08:01;3.50;;;1.40;;
79487;SDS011;68949;53.176;18.088;2023-07-02T12:10:29;4.00;;;1.40;;
79487;SDS011;68949;53.176;18.088;2023-07-02T12:12:56;3.30;;;1.10;;
79487;SDS011;68949;53.176;18.088;2023-07-02T12:15:22;4.40;;;1.50;;
79487;SDS011;68949;53.176;18.088;2023-07-02T12:17:49;3.60;;;1.30;;
79487;SDS011;68949;53.176;18.088;2023-07-02T12:20:15;5.60;;;1.90;;
79487;SDS011;68949;53.176;18.088;2023-07-02T12:22:42;6.20;;;1.70;;
79487;SDS011;68949;53.176;18.088;2023-07-02T12:25:10;6.00;;;1.80;;
79487;SDS011;68949;53.176;18.088;2023-07-02T12:27:37;4.40;;;1.30;;
79487;SDS011;68949;53.176;18.088;2023-07-02T12:30:05;5.30;;;1.30;;
79487;SDS011;68949;53.176;18.088;2023-07-02T12:32:32;4.60;;;1.40;;
79487;SDS011;68949;53.176;18.088;2023-07-02T12:34:59;3.70;;;1.40;;
79487;SDS011;68949;53.176;18.088;2023-07-02T12:37:26;5.00;;;1.70;;
79487;SDS011;68949;53.176;18.088;2023-07-02T12:39:52;4.90;;;1.40;;
79487;SDS011;68949;53.176;18.088;2023-07-02T12:42:19;4.30;;;1.50;;
79487;SDS011;68949;53.176;18.088;2023-07-02T12:44:46;6.30;;;2.00;;
79487;SDS011;68949;53.176;18.088;2023-07-02T12:47:13;3.90;;;1.40;;
79487;SDS011;68949;53.176;18.088;2023-07-02T12:49:40;4.40;;;1.40;;
79487;SDS011;68949;53.176;18.088;2023-07-02T12:52:07;3.80;;;1.60;;
79487;SDS011;68949;53.176;18.088;2023-07-02T12:54:33;4.20;;;1.30;;
79487;SDS011;68949;53.176;18.088;2023-07-02T12:57:01;5.60;;;1.30;;
79487;SDS011;68949;53.176;18.088;2023-07-02T12:59:28;4.70;;;1.40;;
79487;SDS011;68949;53.176;18.088;2023-07-02T13:01:55;5.40;;;1.50;;
79487;SDS011;68949;53.176;18.088;2023-07-02T13:04:22;6.80;;;1.80;;
79487;SDS011;68949;53.176;18.088;2023-07-02T13:06:50;5.10;;;1.50;;
79487;SDS011;68949;53.176;18.088;2023-07-02T13:09:20;4.40;;;1.40;;
79487;SDS011;68949;53.176;18.088;2023-07-02T13:11:47;5.10;;;1.60;;
79487;SDS011;68949;53.176;18.088;2023-07-02T13:14:14;3.70;;;1.10;;
79487;SDS011;68949;53.176;18.088;2023-07-02T13:16:41;4.90;;;1.70;;
79487;SDS011;68949;53.176;18.088;2023-07-02T13:19:09;5.00;;;1.40;;
79487;SDS011;68949;53.176;18.088;2023-07-02T13:21:37;4.40;;;1.80;;
79487;SDS011;68949;53.176;18.088;2023-07-02T13:24:04;5.10;;;1.60;;
79487;SDS011;68949;53.176;18.088;2023-07-02T13:26:31;5.80;;;1.60;;
79487;SDS011;68949;53.176;18.088;2023-07-02T13:28:58;3.70;;;1.40;;
79487;SDS011;68949;53.176;18.088;2023-07-02T13:31:25;7.30;;;2.00;;
79487;SDS011;68949;53.176;18.088;2023-07-02T13:33:52;4.80;;;1.20;;
79487;SDS011;68949;53.176;18.088;2023-07-02T13:36:21;5.40;;;1.50;;
79487;SDS011;68949;53.176;18.088;2023-07-02T13:38:48;5.00;;;1.60;;
79487;SDS011;68949;53.176;18.088;2023-07-02T13:41:14;7.50;;;2.30;;
79487;SDS011;68949;53.176;18.088;2023-07-02T13:43:42;5.00;;;1.80;;
79487;SDS011;68949;53.176;18.088;2023-07-02T13:46:08;4.10;;;1.50;;
79487;SDS011;68949;53.176;18.088;2023-07-02T13:48:35;4.20;;;1.50;;
79487;SDS011;68949;53.176;18.088;2023-07-02T13:51:02;4.70;;;1.80;;
79487;SDS011;68949;53.176;18.088;2023-07-02T13:53:28;7.10;;;1.80;;
79487;SDS011;68949;53.176;18.088;2023-07-02T13:55:55;4.80;;;1.80;;
79487;SDS011;68949;53.176;18.088;2023-07-02T13:58:22;6.30;;;1.80;;
79487;SDS011;68949;53.176;18.088;2023-07-02T14:00:49;5.80;;;1.50;;
79487;SDS011;68949;53.176;18.088;2023-07-02T14:03:16;3.90;;;1.30;;
79487;SDS011;68949;53.176;18.088;2023-07-02T14:05:43;4.00;;;1.40;;
79487;SDS011;68949;53.176;18.088;2023-07-02T14:08:10;7.00;;;2.60;;
79487;SDS011;68949;53.176;18.088;2023-07-02T14:10:36;4.70;;;1.90;;
79487;SDS011;68949;53.176;18.088;2023-07-02T14:13:03;5.00;;;1.80;;
79487;SDS011;68949;53.176;18.088;2023-07-02T14:15:30;6.60;;;1.90;;
79487;SDS011;68949;53.176;18.088;2023-07-02T14:17:57;5.50;;;1.70;;
79487;SDS011;68949;53.176;18.088;2023-07-02T14:20:23;5.70;;;1.60;;
79487;SDS011;68949;53.176;18.088;2023-07-02T14:22:50;6.20;;;1.70;;
79487;SDS011;68949;53.176;18.088;2023-07-02T14:25:17;5.20;;;2.00;;
79487;SDS011;68949;53.176;18.088;2023-07-02T14:27:44;5.90;;;2.00;;
79487;SDS011;68949;53.176;18.088;2023-07-02T14:30:13;5.30;;;2.10;;
79487;SDS011;68949;53.176;18.088;2023-07-02T14:32:40;8.10;;;2.20;;
79487;SDS011;68949;53.176;18.088;2023-07-02T14:35:10;6.50;;;2.40;;
79487;SDS011;68949;53.176;18.088;2023-07-02T14:37:36;8.70;;;2.10;;